Time;durP1;ratioP1;P1;durP2;ratioP2;P2;SDS_P1;SDS_P2;PMS_P1;PMS_P2;Temp;Humidity;BMP_temperature;BMP_pressure;BME280_temperature;BME280_humidity;BME280_pressure;Samples;Min_cycle;Max_cycle;Signal;HPM_P1;HPM_P2
2022/09/27 00:00:26;;;;;;;7.95;1.42;;;;;;;;;;4998144;28;20415;-66
2022/09/27 00:02:51;;;;;;;7.40;1.30;;;9.70;4.40;;;;;;4997093;28;20040;-66
2022/09/27 00:05:17;;;;;;;5.40;1.50;;;9.40;10.10;;;;;;4996459;28;20475;-67
2022/09/27 00:07:44;;;;;;;6.22;2.28;;;10.00;12.50;;;;;;5002515;28;20045;-67
2022/09/27 00:10:10;;;;;;;6.10;1.30;;;9.20;12.80;;;;;;5009288;28;20069;-67
2022/09/27 00:12:36;;;;;;;7.05;1.15;;;;;;;;;;4999006;28;20045;-66
2022/09/27 00:15:03;;;;;;;7.78;1.42;;;9.20;14.80;;;;;;5008353;28;20030;-66
2022/09/27 00:17:29;;;;;;;6.18;1.48;;;9.50;9.30;;;;;;5012273;28;20149;-66
2022/09/27 00:19:57;;;;;;;5.43;1.00;;;9.40;12.80;;;;;;5013112;28;20200;-66
2022/09/27 00:22:23;;;;;;;5.90;1.05;;;10.00;9.30;;;;;;5104562;22;20420;-59
2022/09/27 00:24:50;;;;;;;4.60;1.10;;;9.80;10.70;;;;;;4990351;28;20091;-60
2022/09/27 00:27:16;;;;;;;4.75;1.00;;;10.10;1.00;;;;;;5003181;28;20403;-61
2022/09/27 00:29:42;;;;;;;4.97;1.35;;;9.30;1.00;;;;;;4992423;28;20035;-60
2022/09/27 00:32:08;;;;;;;4.85;1.05;;;9.80;1.00;;;;;;4992855;28;20044;-61
2022/09/27 00:34:34;;;;;;;5.38;1.00;;;9.20;1.00;;;;;;4999078;28;20112;-60
2022/09/27 00:36:59;;;;;;;6.45;1.10;;;9.90;1.00;;;;;;4974549;28;20038;-60
2022/09/27 00:39:25;;;;;;;3.45;1.10;;;10.00;1.00;;;;;;5000596;28;20033;-60
2022/09/27 00:41:51;;;;;;;5.65;1.70;;;9.80;1.00;;;;;;4992778;28;20041;-60
2022/09/27 00:44:27;;;;;;;3.85;1.10;;;9.80;1.00;;;;;;5002551;28;20026;-58
2022/09/27 00:47:00;;;;;;;5.22;1.42;;;10.00;1.00;;;;;;4989153;28;20038;-61
2022/09/27 00:49:50;;;;;;;6.10;1.00;;;10.10;1.00;;;;;;4989852;28;20042;-60
2022/09/27 00:52:28;;;;;;;5.88;1.02;;;9.30;1.00;;;;;;4989893;28;20047;-60
2022/09/27 00:55:01;;;;;;;7.93;1.27;;;9.60;1.00;;;;;;4994347;28;20522;-61
2022/09/27 00:57:27;;;;;;;9.57;1.25;;;9.60;1.00;;;;;;4989456;28;20086;-59
2022/09/27 01:00:00;;;;;;;4.50;1.33;;;10.00;1.00;;;;;;5007847;28;20033;-61
2022/09/27 01:02:26;;;;;;;7.47;1.20;;;9.60;1.00;;;;;;4991174;28;20046;-61
2022/09/27 01:04:54;;;;;;;2.88;0.90;;;9.70;1.00;;;;;;4993612;28;20523;-62
2022/09/27 01:07:20;;;;;;;7.32;1.63;;;9.60;1.00;;;;;;4976031;28;20047;-61
2022/09/27 01:09:45;;;;;;;7.38;1.33;;;9.40;1.00;;;;;;4994899;28;20085;-62
2022/09/27 01:12:28;;;;;;;6.35;1.13;;;9.60;1.00;;;;;;4992030;28;20091;-62
2022/09/27 01:15:15;;;;;;;5.93;1.42;;;9.70;1.00;;;;;;4992344;28;20046;-62
2022/09/27 01:18:02;;;;;;;5.97;1.27;;;9.70;1.00;;;;;;5001888;28;20111;-62
2022/09/27 01:21:05;;;;;;;6.45;1.20;;;9.90;1.00;;;;;;5008589;28;20052;-62
2022/09/27 01:23:33;;;;;;;6.43;1.67;;;10.10;1.00;;;;;;4997473;28;20038;-61
2022/09/27 01:26:27;;;;;;;5.80;1.27;;;10.10;1.00;;;;;;5008240;28;20029;-61
2022/09/27 01:29:16;;;;;;;6.97;1.15;;;9.80;1.00;;;;;;5003599;28;20042;-60
2022/09/27 01:31:58;;;;;;;6.55;1.27;;;9.80;1.00;;;;;;4988619;28;20575;-61
2022/09/27 01:34:34;;;;;;;5.28;1.10;;;;;;;;;;5004842;28;20499;-62
2022/09/27 01:37:15;;;;;;;5.85;0.98;;;9.60;1.00;;;;;;5007912;28;20044;-61
2022/09/27 01:39:46;;;;;;;5.03;0.93;;;9.50;1.00;;;;;;5003278;28;20057;-62
2022/09/27 01:42:28;;;;;;;3.35;0.80;;;9.70;1.00;;;;;;5003437;28;20029;-61
2022/09/27 01:45:18;;;;;;;3.30;0.88;;;9.50;1.00;;;;;;4979479;28;20061;-61
2022/09/27 01:47:48;;;;;;;4.03;0.90;;;9.80;1.00;;;;;;4990984;28;20472;-62
2022/09/27 01:50:29;;;;;;;9.00;1.10;;;9.70;1.00;;;;;;4996473;28;20448;-62
2022/09/27 01:53:03;;;;;;;7.05;1.00;;;9.20;1.00;;;;;;5004454;28;20049;-60
2022/09/27 01:55:33;;;;;;;5.80;1.40;;;9.50;1.00;;;;;;5005748;28;20041;-60
2022/09/27 01:58:10;;;;;;;7.45;1.30;;;9.90;1.00;;;;;;5001602;28;20053;-61
2022/09/27 02:00:38;;;;;;;6.38;1.23;;;9.90;1.00;;;;;;5006796;28;20041;-60
2022/09/27 02:03:11;;;;;;;6.70;1.15;;;9.50;1.00;;;;;;4998335;28;20026;-61
2022/09/27 02:05:46;;;;;;;5.90;0.90;;;10.00;1.00;;;;;;5007738;28;20433;-60
2022/09/27 02:08:22;;;;;;;7.00;1.20;;;10.00;1.00;;;;;;4999420;28;20054;-61
2022/09/27 02:10:51;;;;;;;5.60;1.13;;;10.00;1.00;;;;;;5008191;28;21266;-60
2022/09/27 02:13:19;;;;;;;5.03;1.05;;;9.50;1.00;;;;;;5001117;28;20081;-60
2022/09/27 02:16:13;;;;;;;7.18;1.10;;;9.20;1.00;;;;;;5008305;28;20068;-62
2022/09/27 02:19:03;;;;;;;6.40;1.67;;;9.70;1.00;;;;;;4977575;28;20496;-59
2022/09/27 02:22:09;;;;;;;4.15;0.80;;;9.40;1.00;;;;;;4989217;28;20103;-61
2022/09/27 02:24:49;;;;;;;3.08;0.80;;;9.40;1.00;;;;;;4976742;28;20049;-62
2022/09/27 02:27:22;;;;;;;4.10;0.77;;;9.20;1.00;;;;;;4998488;28;20056;-62
2022/09/27 02:30:10;;;;;;;0.63;0.47;;;9.40;1.00;;;;;;5005516;28;20054;-61
2022/09/27 02:32:37;;;;;;;2.42;0.57;;;9.70;1.00;;;;;;4999433;28;20296;-62
2022/09/27 02:35:13;;;;;;;3.03;0.73;;;9.10;1.00;;;;;;4996785;28;20065;-62
2022/09/27 02:37:39;;;;;;;3.78;1.15;;;;;;;;;;4999965;28;20298;-62
2022/09/27 02:40:05;;;;;;;4.40;1.15;;;9.90;1.00;;;;;;5001425;28;20200;-62
2022/09/27 02:42:32;;;;;;;9.60;1.30;;;9.40;1.00;;;;;;4986550;28;20042;-60
2022/09/27 02:44:58;;;;;;;5.93;1.30;;;9.80;1.00;;;;;;4999406;28;20508;-60
2022/09/27 02:47:55;;;;;;;8.48;1.42;;;9.50;1.00;;;;;;4989722;28;20043;-62
2022/09/27 02:50:37;;;;;;;6.38;1.00;;;9.60;1.00;;;;;;4993237;28;20065;-58
2022/09/27 02:53:23;;;;;;;7.22;1.42;;;9.50;1.00;;;;;;4975947;28;20039;-61
2022/09/27 02:56:00;;;;;;;4.10;0.98;;;9.10;1.00;;;;;;4997670;28;20128;-59
2022/09/27 02:58:45;;;;;;;3.97;0.80;;;9.30;1.00;;;;;;5002738;28;20046;-61
2022/09/27 03:02:02;;;;;;;3.20;0.80;;;8.70;1.00;;;;;;4997886;28;20385;-61
2022/09/27 03:04:36;;;;;;;5.30;1.10;;;8.80;1.00;;;;;;4951677;28;20283;-60
2022/09/27 03:07:03;;;;;;;5.35;1.00;;;9.00;1.00;;;;;;4964005;28;20117;-60
2022/09/27 03:09:43;;;;;;;2.78;0.80;;;8.80;1.00;;;;;;4997723;28;20252;-57
2022/09/27 03:12:09;;;;;;;2.45;0.70;;;9.20;1.00;;;;;;4996807;28;20045;-59
2022/09/27 03:14:35;;;;;;;4.43;1.20;;;;;;;;;;4983358;28;20050;-58
2022/09/27 03:17:01;;;;;;;3.08;0.85;;;8.60;1.00;;;;;;4997305;28;20053;-60
2022/09/27 03:19:27;;;;;;;6.15;0.95;;;8.90;1.00;;;;;;5004521;28;20046;-60
2022/09/27 03:21:52;;;;;;;4.35;0.90;;;9.30;1.00;;;;;;4999502;28;20038;-57
2022/09/27 03:24:18;;;;;;;6.15;1.00;;;9.10;1.00;;;;;;4993713;28;20044;-59
2022/09/27 03:26:44;;;;;;;6.25;1.10;;;8.80;1.00;;;;;;4998700;28;20042;-58
2022/09/27 03:29:10;;;;;;;4.65;1.00;;;8.80;1.00;;;;;;4995833;28;20038;-61
2022/09/27 03:31:35;;;;;;;6.35;1.27;;;9.00;1.00;;;;;;5000591;28;20047;-61
2022/09/27 03:34:01;;;;;;;6.63;1.55;;;9.00;1.00;;;;;;4974369;28;20041;-60
2022/09/27 03:36:27;;;;;;;10.90;1.67;;;9.10;1.00;;;;;;5003828;28;20042;-61
2022/09/27 03:38:53;;;;;;;8.18;1.42;;;9.10;1.00;;;;;;4999127;28;20029;-61
2022/09/27 03:41:19;;;;;;;8.55;1.90;;;9.40;1.00;;;;;;4994215;28;20490;-60
2022/09/27 03:43:44;;;;;;;6.72;1.63;;;9.60;1.00;;;;;;4995635;28;20505;-62
2022/09/27 03:46:10;;;;;;;9.52;1.48;;;9.10;1.00;;;;;;4999850;28;20088;-61
2022/09/27 03:48:36;;;;;;;4.43;1.10;;;9.30;1.00;;;;;;5003367;28;20404;-60
2022/09/27 03:51:03;;;;;;;7.47;1.30;;;9.80;1.00;;;;;;4983705;28;20045;-60
2022/09/27 03:53:29;;;;;;;5.38;1.10;;;9.50;1.00;;;;;;5005591;28;20049;-61
2022/09/27 03:55:55;;;;;;;9.90;1.70;;;9.40;1.00;;;;;;5005049;28;20030;-60
2022/09/27 03:58:20;;;;;;;2.42;0.88;;;9.10;1.00;;;;;;5008572;28;20052;-60
2022/09/27 04:00:46;;;;;;;3.97;1.00;;;9.40;1.00;;;;;;5006700;28;20452;-60
2022/09/27 04:03:13;;;;;;;6.43;1.10;;;9.00;1.00;;;;;;5006338;28;20236;-60
2022/09/27 04:05:39;;;;;;;7.53;1.05;;;9.00;1.00;;;;;;5006562;28;20030;-60
2022/09/27 04:08:09;;;;;;;7.80;1.58;;;9.00;1.00;;;;;;5003866;28;20116;-60
2022/09/27 04:10:35;;;;;;;3.67;0.73;;;9.20;1.00;;;;;;5008138;28;20045;-61
2022/09/27 04:13:01;;;;;;;4.97;1.15;;;9.10;1.00;;;;;;4998968;28;20030;-60
2022/09/27 04:15:26;;;;;;;3.13;0.70;;;9.20;1.00;;;;;;5009175;28;20041;-61
2022/09/27 04:17:52;;;;;;;3.85;1.10;;;9.20;1.00;;;;;;4988011;28;20041;-59
2022/09/27 04:20:18;;;;;;;5.95;1.00;;;9.30;1.00;;;;;;5004713;28;20468;-61
2022/09/27 04:22:44;;;;;;;5.65;1.00;;;;;;;;;;5004058;28;20456;-61
2022/09/27 04:25:11;;;;;;;4.43;1.23;;;9.60;1.00;;;;;;5001706;28;20389;-61
2022/09/27 04:27:37;;;;;;;6.68;1.52;;;9.80;1.00;;;;;;4991429;28;20042;-62
2022/09/27 04:30:05;;;;;;;3.28;1.23;;;9.30;1.00;;;;;;4996087;28;20040;-62
2022/09/27 04:32:31;;;;;;;4.03;0.90;;;9.00;1.00;;;;;;4990083;28;20049;-60
2022/09/27 04:38:00;;;;;;;4.25;1.00;;;8.60;1.00;;;;;;4896852;29;20050;-61
2022/09/27 04:40:26;;;;;;;3.80;1.00;;;9.20;1.00;;;;;;4888131;29;20069;-60
2022/09/27 04:42:52;;;;;;;5.63;1.65;;;9.10;1.00;;;;;;4936740;28;20133;-61
2022/09/27 04:45:18;;;;;;;5.68;1.60;;;9.30;1.00;;;;;;4980935;28;20045;-61
2022/09/27 04:47:45;;;;;;;4.30;0.93;;;8.70;1.00;;;;;;5001878;28;20042;-60
2022/09/27 04:50:11;;;;;;;5.20;1.10;;;8.70;1.00;;;;;;4967006;28;20081;-61
2022/09/27 04:52:37;;;;;;;4.68;1.00;;;9.20;1.00;;;;;;4977538;28;20055;-62
2022/09/27 04:55:04;;;;;;;5.07;1.20;;;9.20;1.00;;;;;;4976347;28;20489;-61
2022/09/27 04:57:29;;;;;;;9.75;1.35;;;9.20;1.00;;;;;;4976691;28;20101;-62
2022/09/27 04:59:57;;;;;;;7.95;1.20;;;9.00;1.00;;;;;;4978919;28;20030;-58
2022/09/27 05:02:23;;;;;;;9.02;1.45;;;9.30;1.00;;;;;;4997007;28;20034;-60
2022/09/27 05:04:49;;;;;;;2.90;0.90;;;8.90;1.00;;;;;;4998445;28;20083;-61
2022/09/27 05:07:14;;;;;;;7.03;1.33;;;8.80;1.00;;;;;;4992810;28;20037;-61
2022/09/27 05:09:40;;;;;;;3.78;1.27;;;9.20;1.00;;;;;;4997649;28;20053;-61
2022/09/27 05:12:07;;;;;;;2.90;1.20;;;9.20;1.00;;;;;;4996597;28;20038;-60
2022/09/27 05:14:33;;;;;;;9.65;1.65;;;9.40;1.00;;;;;;4998120;28;20101;-60
2022/09/27 05:16:59;;;;;;;4.97;1.08;;;9.10;1.00;;;;;;4957447;28;20074;-61
2022/09/27 05:19:24;;;;;;;6.47;2.05;;;9.00;1.00;;;;;;4989520;28;20070;-60
2022/09/27 05:21:50;;;;;;;4.90;1.17;;;9.60;1.00;;;;;;4987281;28;20475;-58
2022/09/27 05:24:16;;;;;;;7.22;2.38;;;9.10;1.00;;;;;;4989543;28;20046;-59
2022/09/27 05:26:41;;;;;;;9.50;2.33;;;9.10;1.00;;;;;;4972780;28;20125;-60
2022/09/27 05:29:07;;;;;;;7.78;1.00;;;8.90;1.00;;;;;;4973187;28;20046;-60
2022/09/27 05:31:32;;;;;;;6.38;1.42;;;9.10;1.00;;;;;;4974464;28;20069;-60
2022/09/27 05:33:58;;;;;;;6.18;1.38;;;9.60;1.00;;;;;;4974986;28;20046;-58
2022/09/27 05:36:24;;;;;;;4.50;1.30;;;9.20;1.00;;;;;;4966804;28;20125;-59
2022/09/27 05:38:50;;;;;;;8.13;1.38;;;;;;;;;;4969262;28;20126;-59
2022/09/27 05:41:16;;;;;;;8.15;1.73;;;8.80;1.00;;;;;;4973008;28;20114;-58
2022/09/27 05:43:41;;;;;;;6.32;1.77;;;8.90;1.00;;;;;;4977336;28;20131;-59
2022/09/27 05:46:07;;;;;;;8.63;1.70;;;9.30;1.00;;;;;;4977273;28;20662;-60
2022/09/27 05:48:33;;;;;;;7.18;1.42;;;9.20;1.00;;;;;;4976859;28;20093;-58
2022/09/27 05:50:58;;;;;;;4.75;1.35;;;9.60;1.00;;;;;;5001060;28;20042;-60
2022/09/27 05:53:24;;;;;;;11.00;1.90;;;9.40;1.00;;;;;;4983776;28;20113;-60
2022/09/27 05:55:50;;;;;;;5.05;1.17;;;9.50;1.00;;;;;;5002735;28;20057;-59
2022/09/27 05:58:16;;;;;;;5.35;1.20;;;9.30;1.00;;;;;;5006618;28;20038;-61
2022/09/27 06:00:42;;;;;;;5.45;1.08;;;9.50;1.00;;;;;;5004917;28;20034;-61
2022/09/27 06:03:11;;;;;;;6.13;1.02;;;9.80;1.00;;;;;;4990573;28;20451;-59
2022/09/27 06:05:38;;;;;;;4.80;1.13;;;9.90;1.00;;;;;;5001891;28;20073;-61
2022/09/27 06:08:09;;;;;;;4.53;1.00;;;9.80;1.00;;;;;;5001806;28;20452;-61
2022/09/27 06:10:35;;;;;;;4.75;1.17;;;9.00;1.00;;;;;;5005517;28;20519;-61
2022/09/27 06:13:20;;;;;;;4.88;1.20;;;9.70;1.00;;;;;;4997319;28;20042;-60
2022/09/27 06:15:46;;;;;;;4.70;1.27;;;9.60;1.00;;;;;;5004342;28;20112;-61
2022/09/27 06:18:15;;;;;;;9.25;1.70;;;9.10;1.00;;;;;;5003647;28;20117;-61
2022/09/27 06:20:41;;;;;;;4.93;1.00;;;9.40;1.00;;;;;;4987223;28;20038;-60
2022/09/27 06:23:17;;;;;;;4.72;1.10;;;9.20;1.00;;;;;;5005464;22;20049;-62
2022/09/27 06:25:43;;;;;;;5.38;1.08;;;9.20;1.00;;;;;;5018521;28;20033;-61
2022/09/27 06:28:10;;;;;;;4.88;0.90;;;9.60;1.00;;;;;;5001942;28;20562;-62
2022/09/27 06:30:40;;;;;;;4.07;1.00;;;9.60;1.00;;;;;;5021052;28;20079;-62
2022/09/27 06:33:08;;;;;;;4.28;0.90;;;9.50;1.00;;;;;;5017438;28;20042;-60
2022/09/27 06:35:35;;;;;;;6.47;0.98;;;9.90;1.00;;;;;;5024477;28;20099;-61
2022/09/27 06:38:07;;;;;;;5.63;1.00;;;9.30;1.00;;;;;;5022319;28;20034;-62
2022/09/27 06:40:33;;;;;;;3.85;0.95;;;9.70;1.00;;;;;;5016018;28;20044;-63
2022/09/27 06:43:08;;;;;;;6.60;1.02;;;9.40;1.00;;;;;;5013017;28;20365;-64
2022/09/27 06:45:35;;;;;;;3.90;0.95;;;10.10;3.60;;;;;;5000264;28;20049;-64
2022/09/27 06:48:05;;;;;;;2.20;0.88;;;9.60;1.30;;;;;;5020253;28;20041;-63
2022/09/27 06:50:34;;;;;;;3.70;0.80;;;9.50;1.30;;;;;;5015176;28;20076;-64
2022/09/27 06:53:01;;;;;;;3.55;1.17;;;9.20;1.00;;;;;;5011986;28;20045;-64
2022/09/27 06:55:26;;;;;;;1.70;0.60;;;9.80;1.60;;;;;;5022508;28;20033;-64
2022/09/27 07:00:41;;;;;;;5.05;0.88;;;10.10;2.30;;;;;;5003114;28;20045;-64
2022/09/27 07:03:10;;;;;;;4.90;0.85;;;9.20;2.50;;;;;;5027325;28;20049;-64
2022/09/27 07:05:36;;;;;;;4.03;1.20;;;10.30;3.90;;;;;;5023108;28;20129;-62
2022/09/27 07:08:03;;;;;;;3.20;0.80;;;9.50;2.40;;;;;;5001319;28;20045;-64
2022/09/27 07:10:31;;;;;;;4.25;1.02;;;;;;;;;;5024972;28;20038;-64
2022/09/27 07:13:09;;;;;;;5.20;0.85;;;9.80;4.30;;;;;;5023207;28;20041;-65
2022/09/27 07:15:36;;;;;;;3.65;0.73;;;9.60;4.50;;;;;;5007178;28;20365;-64
2022/09/27 07:18:04;;;;;;;4.78;1.30;;;10.20;4.20;;;;;;5025261;28;20042;-63
2022/09/27 07:20:30;;;;;;;5.32;1.42;;;9.70;5.10;;;;;;5024757;28;20072;-63
2022/09/27 07:22:56;;;;;;;6.68;1.27;;;9.80;6.20;;;;;;5029500;28;20037;-63
2022/09/27 07:25:22;;;;;;;5.57;1.30;;;9.70;5.10;;;;;;5027059;28;20042;-63
2022/09/27 07:27:48;;;;;;;3.42;1.00;;;10.40;1.90;;;;;;5027756;28;20143;-62
2022/09/27 07:30:15;;;;;;;4.10;0.82;;;10.20;1.00;;;;;;5024447;28;20073;-63
2022/09/27 07:32:42;;;;;;;3.10;0.77;;;9.60;1.00;;;;;;5028929;28;20599;-63
2022/09/27 07:35:09;;;;;;;3.45;0.80;;;10.30;1.00;;;;;;5005523;28;20076;-63
2022/09/27 07:37:36;;;;;;;1.95;0.68;;;9.50;1.00;;;;;;5027315;28;20041;-64
2022/09/27 07:40:06;;;;;;;4.32;0.65;;;9.90;1.00;;;;;;5023917;28;20515;-64
2022/09/27 07:42:32;;;;;;;3.50;0.80;;;;;;;;;;5009749;28;20079;-64
2022/09/27 07:44:58;;;;;;;4.32;1.00;;;9.60;1.00;;;;;;5015014;28;20096;-64
2022/09/27 07:47:24;;;;;;;2.78;0.88;;;9.20;1.00;;;;;;5002926;28;20054;-63
2022/09/27 07:49:54;;;;;;;4.25;0.85;;;10.00;1.00;;;;;;5009071;28;20054;-64
2022/09/27 07:52:21;;;;;;;4.10;1.10;;;10.30;1.00;;;;;;5022329;28;20057;-61
2022/09/27 07:54:47;;;;;;;7.90;1.40;;;10.50;1.00;;;;;;5024413;28;20129;-63
2022/09/27 07:57:14;;;;;;;5.85;1.08;;;10.10;1.00;;;;;;5028248;28;20601;-62
2022/09/27 07:59:40;;;;;;;6.30;1.02;;;10.70;1.00;;;;;;5021182;28;20439;-61
2022/09/27 08:02:10;;;;;;;4.65;1.38;;;10.50;1.00;;;;;;5021208;28;20029;-61
2022/09/27 08:04:35;;;;;;;5.28;1.35;;;10.70;1.00;;;;;;5023444;28;20491;-62
2022/09/27 08:07:01;;;;;;;6.20;1.58;;;10.50;1.00;;;;;;5020449;28;20033;-62
2022/09/27 08:09:27;;;;;;;7.53;1.17;;;10.50;1.00;;;;;;5024338;28;20122;-62
2022/09/27 08:11:56;;;;;;;5.05;1.10;;;10.70;1.00;;;;;;5022235;28;20072;-62
2022/09/27 08:14:23;;;;;;;5.93;1.20;;;11.00;1.00;;;;;;5026697;28;20045;-60
2022/09/27 08:16:50;;;;;;;6.22;1.27;;;10.80;1.00;;;;;;5004382;28;20268;-62
2022/09/27 08:19:16;;;;;;;4.45;1.17;;;11.10;1.00;;;;;;5023153;28;20461;-62
2022/09/27 08:21:43;;;;;;;6.70;1.10;;;;;;;;;;5026887;28;20407;-61
2022/09/27 08:24:08;;;;;;;7.38;1.50;;;10.80;1.00;;;;;;5028115;28;20448;-62
2022/09/27 08:26:34;;;;;;;4.47;1.00;;;10.90;1.00;;;;;;5020041;28;20069;-62
2022/09/27 08:29:00;;;;;;;7.88;1.35;;;10.70;1.00;;;;;;5020912;28;20041;-61
2022/09/27 08:31:25;;;;;;;6.07;1.15;;;10.50;1.00;;;;;;5022682;28;20081;-61
2022/09/27 08:33:51;;;;;;;8.15;1.45;;;10.90;1.00;;;;;;5025655;28;20096;-62
2022/09/27 08:36:19;;;;;;;7.45;1.20;;;10.80;1.00;;;;;;5026113;28;20037;-63
2022/09/27 08:38:48;;;;;;;4.65;1.20;;;11.00;1.00;;;;;;5006011;28;20042;-62
2022/09/27 08:41:46;;;;;;;5.65;1.23;;;10.90;1.00;;;;;;5006798;28;20091;-62
2022/09/27 08:44:23;;;;;;;5.57;1.17;;;11.20;1.00;;;;;;4974566;28;20073;-62
2022/09/27 08:47:05;;;;;;;8.27;1.10;;;10.60;1.00;;;;;;5026097;28;20081;-62
2022/09/27 08:49:44;;;;;;;7.55;1.38;;;11.60;1.00;;;;;;4999090;28;20064;-62
2022/09/27 08:52:20;;;;;;;7.25;1.13;;;11.00;1.00;;;;;;5022862;28;20102;-63
2022/09/27 08:54:47;;;;;;;7.13;1.48;;;11.60;1.00;;;;;;5028362;28;20096;-62
2022/09/27 08:57:13;;;;;;;6.03;1.40;;;11.20;1.00;;;;;;5022008;28;20089;-62
2022/09/27 09:00:10;;;;;;;5.28;1.20;;;11.10;1.00;;;;;;5023739;28;20036;-62
2022/09/27 09:02:36;;;;;;;10.20;1.90;;;10.80;1.00;;;;;;5012805;28;20046;-62
2022/09/27 09:05:30;;;;;;;6.38;1.17;;;11.00;1.00;;;;;;5006937;28;20145;-62
2022/09/27 09:08:56;;;;;;;5.15;1.10;;;11.60;1.00;;;;;;5018805;28;20049;-61
2022/09/27 09:14:25;;;;;;;5.00;1.00;;;11.50;1.00;;;;;;4955963;28;20054;-63
2022/09/27 09:17:01;;;;;;;5.35;1.10;;;;;;;;;;5009408;28;20096;-60
2022/09/27 09:19:30;;;;;;;6.07;1.45;;;;;;;;;;5001882;28;20042;-63
2022/09/27 09:21:58;;;;;;;5.28;1.10;;;12.00;1.00;;;;;;5022399;28;20029;-61
2022/09/27 09:24:43;;;;;;;5.05;1.10;;;11.50;1.00;;;;;;5019737;28;20033;-62
2022/09/27 09:27:11;;;;;;;8.02;1.20;;;11.90;1.00;;;;;;5024273;28;20034;-62
2022/09/27 09:30:01;;;;;;;4.43;1.40;;;11.80;1.00;;;;;;5020182;28;20053;-61
2022/09/27 09:32:56;;;;;;;7.47;1.40;;;11.90;1.00;;;;;;5019505;28;20129;-62
2022/09/27 09:35:38;;;;;;;7.43;1.20;;;12.20;1.00;;;;;;5023924;28;20080;-62
2022/09/27 09:38:11;;;;;;;4.40;1.20;;;11.90;1.00;;;;;;5019115;28;20034;-63
2022/09/27 09:40:54;;;;;;;6.88;1.20;;;13.00;1.00;;;;;;5022887;28;20511;-62
2022/09/27 09:43:27;;;;;;;6.70;1.20;;;12.50;1.00;;;;;;5021369;28;20042;-62
2022/09/27 09:46:12;;;;;;;4.23;0.90;;;12.10;1.00;;;;;;5001311;28;20040;-61
2022/09/27 09:49:07;;;;;;;5.30;1.08;;;12.40;1.00;;;;;;5027884;28;20288;-62
2022/09/27 09:51:41;;;;;;;3.13;0.80;;;11.90;1.00;;;;;;5015282;28;20072;-63
2022/09/27 09:54:20;;;;;;;3.60;1.10;;;11.90;1.00;;;;;;5019602;28;20045;-63
2022/09/27 09:57:26;;;;;;;5.25;0.90;;;11.40;1.00;;;;;;5018196;28;20038;-63
2022/09/27 10:00:04;;;;;;;4.45;1.00;;;11.40;1.00;;;;;;5025765;28;20084;-63
2022/09/27 10:02:42;;;;;;;2.15;0.85;;;11.00;1.00;;;;;;5019086;28;20120;-62
2022/09/27 10:05:18;;;;;;;2.83;0.70;;;11.70;1.00;;;;;;5025239;28;20112;-63
2022/09/27 10:10:47;;;;;;;2.78;0.90;;;11.10;1.00;;;;;;4963818;28;20038;-62
2022/09/27 10:13:19;;;;;;;4.68;0.90;;;10.90;1.00;;;;;;5025453;28;20091;-63
2022/09/27 10:16:06;;;;;;;3.15;0.60;;;11.00;1.00;;;;;;5020532;28;20076;-63
2022/09/27 10:18:36;;;;;;;3.20;0.75;;;10.90;80.90;;;;;;5026583;28;20060;-63
2022/09/27 10:21:22;;;;;;;2.63;0.90;;;;;;;;;;4970349;28;20362;-61
2022/09/27 10:26:18;;;;;;;5.35;1.17;;;11.20;1.00;;;;;;5029530;28;20046;-64
2022/09/27 10:28:44;;;;;;;5.72;1.15;;;11.20;1.00;;;;;;5030757;28;20341;-64
2022/09/27 10:31:14;;;;;;;5.93;0.90;;;11.60;1.00;;;;;;4996571;28;20109;-64
2022/09/27 10:33:54;;;;;;;4.45;0.90;;;11.40;1.00;;;;;;5031083;28;20116;-64
2022/09/27 10:36:29;;;;;;;3.42;0.80;;;11.60;1.00;;;;;;5005653;28;20125;-65
2022/09/27 10:38:55;;;;;;;;;;;;;;;;;;5009820;28;20570;-63
2022/09/27 10:41:27;;;;;;;1.73;0.70;;;;;;;;;;4908108;28;20239;-61
2022/09/27 10:43:54;;;;;;;5.00;0.80;;;;;;;;;;4934661;28;20414;-60
2022/09/27 10:46:30;;;;;;;3.00;0.70;;;11.80;1.00;;;;;;4959992;28;20045;-64
2022/09/27 10:49:21;;;;;;;4.88;1.00;;;11.80;1.00;;;;;;5022261;28;20051;-63
2022/09/27 10:51:56;;;;;;;2.17;0.70;;;11.70;1.00;;;;;;5006775;28;20398;-63
2022/09/27 10:54:23;;;;;;;2.58;0.68;;;11.90;1.00;;;;;;5035438;28;20466;-65
2022/09/27 10:57:12;;;;;;;4.97;0.88;;;11.60;1.00;;;;;;5008396;28;20046;-64
2022/09/27 10:59:40;;;;;;;4.40;0.77;;;11.90;1.00;;;;;;5032431;28;20037;-64
2022/09/27 11:02:20;;;;;;;3.25;0.80;;;12.00;1.00;;;;;;5034663;28;20112;-63
2022/09/27 11:05:04;;;;;;;1.52;0.60;;;12.50;1.00;;;;;;5010590;28;20072;-63
2022/09/27 11:10:01;;;;;;;7.68;1.00;;;12.40;1.00;;;;;;4986456;28;20043;-64
2022/09/27 11:12:31;;;;;;;4.47;1.10;;;12.30;1.00;;;;;;4994455;28;20381;-64
2022/09/27 11:15:01;;;;;;;3.13;0.75;;;12.00;1.00;;;;;;4985030;28;20408;-63
2022/09/27 11:17:34;;;;;;;5.22;1.00;;;11.90;1.00;;;;;;4990928;28;20042;-63
2022/09/27 11:20:27;;;;;;;2.38;0.70;;;12.10;1.00;;;;;;4992507;28;20038;-63
2022/09/27 11:23:18;;;;;;;2.15;0.77;;;12.10;1.00;;;;;;4993999;28;20038;-62
2022/09/27 11:25:57;;;;;;;2.80;0.90;;;12.40;1.00;;;;;;4993734;28;20125;-63
2022/09/27 11:28:40;;;;;;;4.75;1.10;;;12.70;1.00;;;;;;4970801;28;20065;-62
2022/09/27 11:31:06;;;;;;;4.45;1.15;;;;;;;;;;4974836;28;20448;-61
2022/09/27 11:33:41;;;;;;;3.65;0.90;;;12.90;1.00;;;;;;4912540;28;20034;-62
2022/09/27 11:36:32;;;;;;;4.45;0.90;;;12.30;1.00;;;;;;4989420;28;20420;-64
2022/09/27 11:39:06;;;;;;;2.70;0.73;;;;;;;;;;4974753;28;20328;-59
2022/09/27 11:41:54;;;;;;;4.50;0.75;;;;;;;;;;4884210;28;20416;-63
2022/09/27 11:44:33;;;;;;;3.13;0.70;;;;;;;;;;4917351;28;20452;-66
2022/09/27 11:47:14;;;;;;;3.22;0.70;;;13.20;1.00;;;;;;4888842;28;20331;-66
2022/09/27 11:50:17;;;;;;;1.67;0.68;;;13.60;1.00;;;;;;4994987;28;20109;-63
2022/09/27 11:53:04;;;;;;;4.47;0.88;;;12.90;1.00;;;;;;4973629;28;20432;-63
2022/09/27 11:55:36;;;;;;;4.28;1.00;;;13.50;1.00;;;;;;4991595;28;20108;-63
2022/09/27 11:58:17;;;;;;;5.15;0.80;;;14.10;1.00;;;;;;4992278;28;20077;-64
2022/09/27 12:00:51;;;;;;;3.85;0.93;;;14.00;1.00;;;;;;4997131;28;20435;-63
2022/09/27 12:03:34;;;;;;;4.82;0.90;;;13.90;1.00;;;;;;4992778;28;20073;-63
2022/09/27 12:06:30;;;;;;;4.45;0.77;;;14.10;1.00;;;;;;4966164;28;20467;-64
2022/09/27 12:09:11;;;;;;;7.07;1.00;;;;;;;;;;4975062;23;20291;-61
2022/09/27 12:11:58;;;;;;;2.85;0.63;;;;;;;;;;4919735;28;20312;-61
2022/09/27 12:14:39;;;;;;;2.63;0.70;;;13.00;1.00;;;;;;4960905;28;20318;-64
2022/09/27 12:17:28;;;;;;;2.97;0.70;;;13.40;1.00;;;;;;5019805;28;20042;-63
2022/09/27 12:24:50;;;;;;;4.57;0.90;;;11.00;1.00;;;;;;5122620;22;20058;-60
2022/09/27 12:27:27;;;;;;;3.55;1.00;;;10.40;1.00;;;;;;4999610;28;20042;-58
2022/09/27 12:29:55;;;;;;;3.40;0.80;;;11.10;1.00;;;;;;5000364;28;20108;-59
2022/09/27 12:32:37;;;;;;;3.15;1.20;;;11.00;1.00;;;;;;5003347;28;20046;-60
2022/09/27 12:35:22;;;;;;;2.88;0.80;;;11.20;1.00;;;;;;4997544;28;20452;-56
2022/09/27 12:38:18;;;;;;;7.15;0.98;;;11.50;1.00;;;;;;5000971;28;20132;-59
2022/09/27 12:40:49;;;;;;;4.22;1.38;;;10.80;1.00;;;;;;4991719;28;20043;-58
2022/09/27 12:43:20;;;;;;;3.75;0.80;;;11.70;1.00;;;;;;4991779;28;20400;-59
2022/09/27 12:46:17;;;;;;;3.15;0.90;;;11.10;1.00;;;;;;4990120;28;20444;-58
2022/09/27 12:48:59;;;;;;;2.25;0.70;;;10.50;1.00;;;;;;4991875;28;20050;-57
2022/09/27 12:51:35;;;;;;;2.50;0.80;;;10.40;1.00;;;;;;4977365;28;20049;-56
2022/09/27 12:54:26;;;;;;;3.80;1.00;;;10.00;1.00;;;;;;4989339;28;20046;-58
2022/09/27 12:57:22;;;;;;;4.20;0.80;;;9.40;1.00;;;;;;4992126;28;20113;-59
2022/09/27 12:59:50;;;;;;;4.45;1.00;;;9.20;1.00;;;;;;4976087;28;20473;-57
2022/09/27 13:02:46;;;;;;;4.40;1.00;;;8.90;1.00;;;;;;4991519;28;20030;-59
2022/09/27 13:05:27;;;;;;;4.57;1.20;;;9.50;1.00;;;;;;4987197;28;20030;-55
2022/09/27 13:08:35;;;;;;;5.10;1.98;;;9.60;1.00;;;;;;4996913;28;20524;-56
2022/09/27 13:11:11;;;;;;;5.53;1.80;;;9.20;1.00;;;;;;4941192;28;20050;-58
2022/09/27 13:13:38;;;;;;;8.13;1.23;;;9.90;1.00;;;;;;4976520;28;20074;-57
2022/09/27 13:16:05;;;;;;;6.57;1.60;;;9.70;1.00;;;;;;4991204;28;20038;-55
2022/09/27 13:18:52;;;;;;;3.85;1.10;;;9.50;1.00;;;;;;4996726;28;20515;-55
2022/09/27 13:21:50;;;;;;;7.15;2.10;;;9.90;1.00;;;;;;4992920;28;20050;-58
2022/09/27 13:24:31;;;;;;;5.22;1.10;;;10.20;1.00;;;;;;4957903;28;20042;-57
2022/09/27 13:27:00;;;;;;;4.13;1.00;;;9.90;1.00;;;;;;4982167;28;20050;-60
2022/09/27 13:29:29;;;;;;;4.93;0.90;;;10.60;1.00;;;;;;4992667;28;20500;-58
2022/09/27 13:31:56;;;;;;;3.65;0.70;;;10.40;1.00;;;;;;5001571;28;20065;-59
2022/09/27 13:36:51;;;;;;;5.90;1.92;;;10.70;1.00;;;;;;4976435;28;20050;-61
2022/09/27 13:39:19;;;;;;;6.18;1.63;;;;;;;;;;5001443;28;20488;-58
2022/09/27 13:41:47;;;;;;;5.65;1.30;;;11.00;1.00;;;;;;4872356;28;20366;-62
2022/09/27 13:44:25;;;;;;;4.20;1.27;;;10.70;1.00;;;;;;5011269;28;20030;-60
2022/09/27 13:47:12;;;;;;;5.10;1.90;;;11.10;1.00;;;;;;5002011;28;20511;-59
2022/09/27 13:49:40;;;;;;;4.28;2.13;;;11.50;1.00;;;;;;4991452;28;20241;-57
2022/09/27 13:52:41;;;;;;;3.25;1.40;;;12.00;1.00;;;;;;5001517;28;20061;-61
2022/09/27 13:55:41;;;;;;;5.10;0.90;;;12.00;1.00;;;;;;5008701;28;20112;-59
2022/09/27 13:58:35;;;;;;;3.42;0.88;;;11.80;1.00;;;;;;4986172;28;20042;-59
2022/09/27 14:01:15;;;;;;;1.88;0.60;;;;;;;;;;4916016;28;20298;-59
2022/09/27 14:09:06;;;;;;;1.85;0.70;;;13.00;1.00;;;;;;5001664;28;20058;-57
2022/09/27 14:11:39;;;;;;;2.95;1.25;;;13.30;1.00;;;;;;5010295;28;20173;-58